createdAt,value
2023-04-16T00:00:07.156Z,1.33
2023-04-16T00:02:38.269Z,1.40
2023-04-16T00:05:05.374Z,2.35
2023-04-16T00:07:35.970Z,1.30
2023-04-16T00:10:09.822Z,1.65
2023-04-16T00:12:36.186Z,1.35
2023-04-16T00:15:02.595Z,1.38
2023-04-16T00:17:35.971Z,1.13
2023-04-16T00:20:02.413Z,2.25
2023-04-16T00:22:28.794Z,1.33
2023-04-16T00:24:56.325Z,1.73
2023-04-16T00:27:22.881Z,1.33
2023-04-16T00:29:56.559Z,1.33
2023-04-16T00:32:26.767Z,1.40
2023-04-16T00:34:53.092Z,1.40
2023-04-16T00:37:19.650Z,2.08
2023-04-16T00:39:46.265Z,1.15
2023-04-16T00:42:12.994Z,1.40
2023-04-16T00:44:39.361Z,1.52
2023-04-16T00:47:06.342Z,1.30
2023-04-16T00:49:32.701Z,1.20
2023-04-16T00:52:04.157Z,1.35
2023-04-16T00:54:34.693Z,1.48
2023-04-16T00:57:01.069Z,1.83
2023-04-16T00:59:27.701Z,1.50
2023-04-16T01:01:54.338Z,2.10
2023-04-16T01:04:21.253Z,1.98
2023-04-16T01:06:47.690Z,1.92
2023-04-16T01:09:18.184Z,2.22
2023-04-16T01:11:44.533Z,1.92
2023-04-16T01:14:10.824Z,2.10
2023-04-16T01:16:44.720Z,2.38
2023-04-16T01:19:12.727Z,2.38
2023-04-16T01:21:39.268Z,1.77
2023-04-16T01:24:10.520Z,2.28
2023-04-16T01:26:36.876Z,2.45
2023-04-16T01:29:03.473Z,2.40
2023-04-16T01:31:32.426Z,2.30
2023-04-16T01:33:58.826Z,2.67
2023-04-16T01:36:37.407Z,2.55
2023-04-16T01:39:03.925Z,2.50
2023-04-16T01:41:32.935Z,2.53
2023-04-16T01:43:59.400Z,2.47
2023-04-16T01:46:33.334Z,2.88
2023-04-16T01:48:59.988Z,3.00
2023-04-16T01:51:26.351Z,2.40
2023-04-16T01:53:52.831Z,3.13
2023-04-16T01:56:19.193Z,2.60
2023-04-16T01:58:47.115Z,3.25
2023-04-16T02:01:18.805Z,2.45
2023-04-16T02:03:55.723Z,4.13
2023-04-16T02:06:24.284Z,3.60
2023-04-16T02:08:50.853Z,3.95
2023-04-16T02:11:18.646Z,3.45
2023-04-16T02:13:44.985Z,4.10
2023-04-16T02:16:11.370Z,4.15
2023-04-16T02:18:37.673Z,4.63
2023-04-16T02:21:07.008Z,3.63
2023-04-16T02:23:37.646Z,3.95
2023-04-16T02:28:30.214Z,4.43
2023-04-16T02:31:00.405Z,4.35
2023-04-16T02:33:26.961Z,4.43
2023-04-16T02:35:53.613Z,5.85
2023-04-16T02:38:22.465Z,5.03
2023-04-16T02:40:48.833Z,5.30
2023-04-16T02:43:19.806Z,5.30
2023-04-16T02:45:49.336Z,5.28
2023-04-16T02:48:15.783Z,4.97
2023-04-16T02:50:42.141Z,4.85
2023-04-16T02:53:08.465Z,5.35
2023-04-16T02:55:34.829Z,4.93
2023-04-16T02:58:07.872Z,5.65
2023-04-16T03:00:34.177Z,5.80
2023-04-16T03:03:02.738Z,6.35
2023-04-16T03:05:40.285Z,4.68
2023-04-16T03:08:07.464Z,5.65
2023-04-16T03:10:33.897Z,5.95
2023-04-16T03:13:00.298Z,5.05
2023-04-16T03:15:31.682Z,6.72
2023-04-16T03:17:58.061Z,5.65
2023-04-16T03:20:27.000Z,5.93
2023-04-16T03:22:56.255Z,5.78
2023-04-16T03:25:22.667Z,6.07
2023-04-16T03:27:49.068Z,5.10
2023-04-16T03:30:20.854Z,5.88
2023-04-16T03:32:47.282Z,7.05
2023-04-16T03:35:13.695Z,6.03
2023-04-16T03:37:40.045Z,5.55
2023-04-16T03:40:07.123Z,5.85
2023-04-16T03:42:41.811Z,5.70
2023-04-16T03:45:08.632Z,4.47
2023-04-16T03:47:35.092Z,5.63
2023-04-16T03:50:04.931Z,6.22
2023-04-16T03:52:31.309Z,5.40
2023-04-16T03:54:57.662Z,4.50
2023-04-16T03:57:26.405Z,5.60
2023-04-16T03:59:58.164Z,4.75
2023-04-16T04:02:24.718Z,5.30
2023-04-16T04:04:51.337Z,5.55
2023-04-16T04:07:18.949Z,6.50
2023-04-16T04:09:48.765Z,5.88
2023-04-16T04:12:15.137Z,5.47
2023-04-16T04:14:41.680Z,5.85
2023-04-16T04:17:11.250Z,6.13
2023-04-16T04:19:40.268Z,5.63
2023-04-16T04:22:14.528Z,5.82
2023-04-16T04:24:41.009Z,5.60
2023-04-16T04:27:08.748Z,7.20
2023-04-16T04:29:35.091Z,6.70
2023-04-16T04:32:09.858Z,6.68
2023-04-16T04:34:36.161Z,5.90
2023-04-16T04:37:03.789Z,6.93
2023-04-16T04:39:38.725Z,5.97
2023-04-16T04:42:07.952Z,6.13
2023-04-16T04:44:37.343Z,6.68
2023-04-16T04:47:03.789Z,5.95
2023-04-16T04:49:30.259Z,6.40
2023-04-16T04:51:57.787Z,6.10
2023-04-16T04:54:32.086Z,6.07
2023-04-16T04:57:00.266Z,5.97
2023-04-16T04:59:28.115Z,5.70
2023-04-16T05:01:54.507Z,5.70
2023-04-16T05:04:20.945Z,6.70
2023-04-16T05:06:47.249Z,5.82
2023-04-16T05:09:16.044Z,5.75
2023-04-16T05:11:42.341Z,5.53
2023-04-16T05:14:11.217Z,7.07
2023-04-16T05:16:40.953Z,5.68
2023-04-16T05:19:07.409Z,6.35
2023-04-16T05:21:34.116Z,6.38
2023-04-16T05:24:00.627Z,6.28
2023-04-16T05:26:27.005Z,6.40
2023-04-16T05:28:54.768Z,6.57
2023-04-16T05:31:21.181Z,5.43
2023-04-16T05:33:51.808Z,6.43
2023-04-16T05:36:18.108Z,7.70
2023-04-16T05:38:45.536Z,6.68
2023-04-16T05:41:13.142Z,8.15
2023-04-16T05:43:39.441Z,7.47
2023-04-16T05:46:13.321Z,6.63
2023-04-16T05:48:39.700Z,7.20
2023-04-16T05:51:07.104Z,5.57
2023-04-16T05:53:33.429Z,7.00
2023-04-16T05:55:59.763Z,6.07
2023-04-16T05:58:27.302Z,5.90
2023-04-16T06:00:56.758Z,7.22
2023-04-16T06:03:24.646Z,8.15
2023-04-16T06:05:51.130Z,7.10
2023-04-16T06:08:17.466Z,8.00
2023-04-16T06:10:47.205Z,7.32
2023-04-16T06:13:13.668Z,7.00
2023-04-16T06:15:40.015Z,6.25
2023-04-16T06:18:06.396Z,6.53
2023-04-16T06:20:32.792Z,6.10
2023-04-16T06:22:59.137Z,7.53
2023-04-16T06:25:25.544Z,7.32
2023-04-16T06:27:51.894Z,6.72
2023-04-16T06:30:19.339Z,7.10
2023-04-16T06:32:45.932Z,5.55
2023-04-16T06:35:13.504Z,6.22
2023-04-16T06:37:39.838Z,6.55
2023-04-16T06:40:06.708Z,6.93
2023-04-16T06:42:38.366Z,7.97
2023-04-16T06:45:07.810Z,6.70
2023-04-16T06:47:34.140Z,6.63
2023-04-16T06:50:00.631Z,6.95
2023-04-16T06:52:29.317Z,7.80
2023-04-16T06:54:59.033Z,8.15
2023-04-16T06:57:25.606Z,7.45
2023-04-16T06:59:52.007Z,8.02
2023-04-16T07:02:18.528Z,7.28
2023-04-16T07:04:46.027Z,7.00
2023-04-16T07:07:12.409Z,6.75
2023-04-16T07:09:38.699Z,8.55
2023-04-16T07:12:08.125Z,7.60
2023-04-16T07:14:34.477Z,7.18
2023-04-16T07:17:00.800Z,8.68
2023-04-16T07:19:27.142Z,7.90
2023-04-16T07:21:53.504Z,8.98
2023-04-16T07:24:19.900Z,8.00
2023-04-16T07:26:46.282Z,8.63
2023-04-16T07:29:14.985Z,9.02
2023-04-16T07:31:48.862Z,9.00
2023-04-16T07:34:15.217Z,7.75
2023-04-16T07:36:41.586Z,8.32
2023-04-16T07:39:08.489Z,7.90
2023-04-16T07:41:35.169Z,7.78
2023-04-16T07:44:01.515Z,7.93
2023-04-16T07:46:36.088Z,7.32
2023-04-16T07:49:12.163Z,6.60
2023-04-16T07:51:43.594Z,8.38
2023-04-16T07:54:12.822Z,7.80
2023-04-16T07:56:39.172Z,6.45
2023-04-16T07:59:19.200Z,6.40
2023-04-16T08:01:51.987Z,7.00
2023-04-16T08:04:26.449Z,7.60
2023-04-16T08:06:56.397Z,6.35
2023-04-16T08:09:30.403Z,5.85
2023-04-16T08:11:56.900Z,5.47
2023-04-16T08:14:23.300Z,6.53
2023-04-16T08:16:49.683Z,5.07
2023-04-16T08:19:19.178Z,4.85
2023-04-16T08:21:45.775Z,6.13
2023-04-16T08:24:13.307Z,5.63
2023-04-16T08:26:39.705Z,5.90
2023-04-16T08:29:06.188Z,4.90
2023-04-16T08:31:37.888Z,5.13
2023-04-16T08:34:06.988Z,5.53
2023-04-16T08:36:33.521Z,5.82
2023-04-16T08:39:02.139Z,5.28
2023-04-16T08:41:34.983Z,5.03
2023-04-16T08:44:07.583Z,5.50
2023-04-16T08:46:42.641Z,4.55
2023-04-16T08:49:15.719Z,4.80
2023-04-16T08:51:45.405Z,4.63
2023-04-16T08:54:22.130Z,4.88
2023-04-16T08:56:51.319Z,3.78
2023-04-16T08:59:26.436Z,4.38
2023-04-16T09:01:57.756Z,4.05
2023-04-16T09:04:28.823Z,4.00
2023-04-16T09:06:56.210Z,4.50
2023-04-16T09:09:22.935Z,3.78
2023-04-16T09:11:53.425Z,4.43
2023-04-16T09:16:46.863Z,3.97
2023-04-16T09:19:14.642Z,5.05
2023-04-16T09:21:48.867Z,3.22
2023-04-16T09:24:16.713Z,3.35
2023-04-16T09:26:43.258Z,3.45
2023-04-16T09:29:10.194Z,3.67
2023-04-16T09:31:36.711Z,4.20
2023-04-16T09:34:12.065Z,3.83
2023-04-16T09:36:38.378Z,3.70
2023-04-16T09:39:07.062Z,4.18
2023-04-16T09:41:33.859Z,4.20
2023-04-16T09:44:02.537Z,4.53
2023-04-16T09:46:35.967Z,3.88
2023-04-16T09:49:32.512Z,4.65
2023-04-16T09:51:58.868Z,3.78
2023-04-16T09:54:26.167Z,3.95
2023-04-16T09:56:57.025Z,4.15
2023-04-16T09:59:24.218Z,3.38
2023-04-16T10:01:51.399Z,4.60
2023-04-16T10:04:17.865Z,4.65
2023-04-16T10:07:02.007Z,4.40
2023-04-16T10:09:32.036Z,3.60
2023-04-16T10:12:00.768Z,4.05
2023-04-16T10:14:27.045Z,3.85
2023-04-16T10:16:53.702Z,4.03
2023-04-16T10:19:20.879Z,3.88
2023-04-16T10:21:48.125Z,5.15
2023-04-16T10:24:14.647Z,4.40
2023-04-16T10:26:43.648Z,4.28
2023-04-16T10:29:14.589Z,3.97
2023-04-16T10:31:41.825Z,4.78
2023-04-16T10:34:09.150Z,5.10
2023-04-16T10:36:39.317Z,5.85
2023-04-16T10:39:10.704Z,6.68
2023-04-16T10:41:41.182Z,5.72
2023-04-16T10:44:09.034Z,4.03
2023-04-16T10:46:40.421Z,4.85
2023-04-16T10:49:24.502Z,6.03
2023-04-16T10:51:54.867Z,4.50
2023-04-16T10:54:27.156Z,5.55
2023-04-16T10:56:56.612Z,6.45
2023-04-16T10:59:24.301Z,6.13
2023-04-16T11:01:59.300Z,6.60
2023-04-16T11:04:25.782Z,5.72
2023-04-16T11:07:09.218Z,6.80
2023-04-16T11:09:52.259Z,5.85
2023-04-16T11:12:42.018Z,6.95
2023-04-16T11:15:09.714Z,7.05
2023-04-16T11:17:41.255Z,5.55
2023-04-16T11:20:21.163Z,7.22
2023-04-16T11:22:49.127Z,7.05
2023-04-16T11:25:26.497Z,6.55
2023-04-16T11:27:53.525Z,6.55
2023-04-16T11:30:32.328Z,6.18
2023-04-16T11:33:01.787Z,5.20
2023-04-16T11:35:28.432Z,5.57
2023-04-16T11:38:02.615Z,6.60
2023-04-16T11:40:33.407Z,5.72
2023-04-16T11:43:13.777Z,6.40
2023-04-16T11:45:55.624Z,5.78
2023-04-16T11:48:22.075Z,5.55
2023-04-16T11:50:56.846Z,6.60
2023-04-16T11:53:23.411Z,6.05
2023-04-16T11:55:49.815Z,7.28
2023-04-16T11:58:18.028Z,6.18
2023-04-16T12:00:44.882Z,6.57
2023-04-16T12:03:14.780Z,6.55
2023-04-16T12:05:43.013Z,7.38
2023-04-16T12:08:11.667Z,7.05
2023-04-16T12:10:55.420Z,5.95
2023-04-16T12:13:25.257Z,6.15
2023-04-16T12:15:58.104Z,5.88
2023-04-16T12:18:28.102Z,5.22
2023-04-16T12:20:57.276Z,5.88
2023-04-16T12:23:23.646Z,5.25
2023-04-16T12:25:50.114Z,5.30
2023-04-16T12:28:36.131Z,5.30
2023-04-16T12:31:03.180Z,6.03
2023-04-16T12:33:29.834Z,5.93
2023-04-16T12:35:56.662Z,5.60
2023-04-16T12:38:24.636Z,4.78
2023-04-16T12:41:00.513Z,5.90
2023-04-16T12:43:26.854Z,6.07
2023-04-16T12:45:55.494Z,5.55
2023-04-16T12:48:21.983Z,5.05
2023-04-16T12:50:49.891Z,4.53
2023-04-16T12:53:16.194Z,5.05
2023-04-16T12:55:42.489Z,5.93
2023-04-16T12:58:12.586Z,5.72
2023-04-16T13:00:39.739Z,6.28
2023-04-16T13:03:07.491Z,5.68
2023-04-16T13:05:36.183Z,5.25
2023-04-16T13:08:06.590Z,6.30
2023-04-16T13:10:33.041Z,6.90
2023-04-16T13:13:04.232Z,6.07
2023-04-16T13:15:33.390Z,6.60
2023-04-16T13:17:59.791Z,6.32
2023-04-16T13:20:26.129Z,6.00
2023-04-16T13:22:52.460Z,7.55
2023-04-16T13:25:18.764Z,6.57
2023-04-16T13:27:45.099Z,7.35
2023-04-16T13:30:11.760Z,6.68
2023-04-16T13:32:38.165Z,7.40
2023-04-16T13:35:04.809Z,7.72
2023-04-16T13:37:31.124Z,7.07
2023-04-16T13:39:57.526Z,6.20
2023-04-16T13:42:23.812Z,6.07
2023-04-16T13:44:50.107Z,7.47
2023-04-16T13:47:16.707Z,6.88
2023-04-16T13:49:44.294Z,7.43
2023-04-16T13:52:13.264Z,7.30
2023-04-16T13:54:39.611Z,6.38
2023-04-16T13:57:07.320Z,6.03
2023-04-16T13:59:33.721Z,6.28
2023-04-16T14:02:00.056Z,7.10
2023-04-16T14:04:26.471Z,6.22
2023-04-16T14:06:55.378Z,6.63
2023-04-16T14:09:21.667Z,5.85
2023-04-16T14:11:48.077Z,6.15
2023-04-16T14:14:14.486Z,6.32
2023-04-16T14:16:40.939Z,5.70
2023-04-16T14:19:07.404Z,5.97
2023-04-16T14:21:33.734Z,5.63
2023-04-16T14:24:03.297Z,6.38
2023-04-16T14:26:32.117Z,5.55
2023-04-16T14:28:58.438Z,5.85
2023-04-16T14:31:24.750Z,6.22
2023-04-16T14:33:51.100Z,5.97
2023-04-16T14:36:17.577Z,5.55
2023-04-16T14:38:43.960Z,6.13
2023-04-16T14:41:12.799Z,5.55
2023-04-16T14:43:40.434Z,4.65
2023-04-16T14:46:07.016Z,6.00
2023-04-16T14:48:34.433Z,5.18
2023-04-16T14:51:02.305Z,5.10
2023-04-16T14:53:28.686Z,6.05
2023-04-16T14:55:56.058Z,5.60
2023-04-16T14:58:22.420Z,5.55
2023-04-16T15:00:48.766Z,5.28
2023-04-16T15:03:15.409Z,6.18
2023-04-16T15:05:46.753Z,5.30
2023-04-16T15:08:13.134Z,5.68
2023-04-16T15:10:39.470Z,5.35
2023-04-16T15:13:07.006Z,5.30
2023-04-16T15:15:36.138Z,5.25
2023-04-16T15:18:08.433Z,5.22
2023-04-16T15:20:34.919Z,5.40
2023-04-16T15:23:01.470Z,5.63
2023-04-16T15:25:27.921Z,5.95
2023-04-16T15:27:56.250Z,6.10
2023-04-16T15:30:22.655Z,5.80
2023-04-16T15:32:48.992Z,4.80
2023-04-16T15:35:15.367Z,7.00
2023-04-16T15:37:44.026Z,5.47
2023-04-16T15:40:12.520Z,6.40
2023-04-16T15:42:38.858Z,6.40
2023-04-16T15:45:12.574Z,5.53
2023-04-16T15:47:41.528Z,5.47
2023-04-16T15:50:10.533Z,6.00
2023-04-16T15:52:36.942Z,6.68
2023-04-16T15:55:06.971Z,7.60
2023-04-16T15:57:33.262Z,6.07
2023-04-16T16:00:07.387Z,6.13
2023-04-16T16:02:35.409Z,7.25
2023-04-16T16:05:01.891Z,6.35
2023-04-16T16:07:28.257Z,8.50
2023-04-16T16:09:54.622Z,7.10
2023-04-16T16:12:20.907Z,7.47
2023-04-16T16:14:47.225Z,6.18
2023-04-16T16:17:19.142Z,5.65
2023-04-16T16:19:47.869Z,6.38
2023-04-16T16:22:16.552Z,7.38
2023-04-16T16:24:44.035Z,7.28
2023-04-16T16:27:13.211Z,5.93
2023-04-16T16:29:39.501Z,6.57
2023-04-16T16:32:07.371Z,7.93
2023-04-16T16:34:33.743Z,6.80
2023-04-16T16:37:00.187Z,7.88
2023-04-16T16:39:33.413Z,7.45
2023-04-16T16:42:00.038Z,7.38
2023-04-16T16:44:27.969Z,6.70
2023-04-16T16:46:54.335Z,8.25
2023-04-16T16:49:20.959Z,7.15
2023-04-16T16:51:48.188Z,7.65
2023-04-16T16:54:16.811Z,6.78
2023-04-16T16:56:43.190Z,6.80
2023-04-16T16:59:09.987Z,7.07
2023-04-16T17:01:36.795Z,6.60
2023-04-16T17:04:03.353Z,7.25
2023-04-16T17:06:33.370Z,8.50
2023-04-16T17:09:00.024Z,8.02
2023-04-16T17:11:26.550Z,7.20
2023-04-16T17:13:53.536Z,7.35
2023-04-16T17:16:21.193Z,7.10
2023-04-16T17:18:48.658Z,7.93
2023-04-16T17:21:18.610Z,7.93
2023-04-16T17:23:50.643Z,7.80
2023-04-16T17:26:21.251Z,8.27
2023-04-16T17:28:48.724Z,8.48
2023-04-16T17:31:15.209Z,7.20
2023-04-16T17:33:41.624Z,8.25
2023-04-16T17:36:10.282Z,8.35
2023-04-16T17:38:36.598Z,8.73
2023-04-16T17:41:02.980Z,6.57
2023-04-16T17:43:29.295Z,7.13
2023-04-16T17:45:55.847Z,8.55
2023-04-16T17:48:22.493Z,8.15
2023-04-16T17:50:49.186Z,8.80
2023-04-16T17:53:18.571Z,8.23
2023-04-16T17:55:56.552Z,7.82
2023-04-16T17:58:23.512Z,8.40
2023-04-16T18:00:52.883Z,7.32
2023-04-16T18:03:22.275Z,8.07
2023-04-16T18:05:48.858Z,8.30
2023-04-16T18:08:15.185Z,8.77
2023-04-16T18:10:41.493Z,6.95
2023-04-16T18:13:07.818Z,7.88
2023-04-16T18:15:39.677Z,7.82
2023-04-16T18:18:06.050Z,9.20
2023-04-16T18:20:34.876Z,9.48
2023-04-16T18:23:01.229Z,9.38
2023-04-16T18:25:34.395Z,7.38
2023-04-16T18:28:01.273Z,8.75
2023-04-16T18:30:28.222Z,8.68
2023-04-16T18:33:25.367Z,8.70
2023-04-16T18:35:41.418Z,8.88
2023-04-16T18:38:07.721Z,8.63
2023-04-16T18:40:37.554Z,9.15
2023-04-16T18:43:04.262Z,8.13
2023-04-16T18:45:34.131Z,8.45
2023-04-16T18:48:00.944Z,9.25
2023-04-16T18:50:27.289Z,9.63
2023-04-16T18:52:53.652Z,8.93
2023-04-16T18:55:19.989Z,10.48
2023-04-16T18:57:49.047Z,9.57
2023-04-16T19:00:15.589Z,9.63
2023-04-16T19:02:42.084Z,10.43
2023-04-16T19:05:09.106Z,9.00
2023-04-16T19:07:37.816Z,10.00
2023-04-16T19:10:12.129Z,9.20
2023-04-16T19:12:40.824Z,9.75
2023-04-16T19:15:09.166Z,10.25
2023-04-16T19:17:43.336Z,10.60
2023-04-16T19:20:12.459Z,10.88
2023-04-16T19:22:41.179Z,10.18
2023-04-16T19:25:07.966Z,8.82
2023-04-16T19:27:36.798Z,9.93
2023-04-16T19:30:03.712Z,9.52
2023-04-16T19:32:35.070Z,9.80
2023-04-16T19:35:01.562Z,10.95
2023-04-16T19:37:27.899Z,9.63
2023-04-16T19:39:54.287Z,10.00
2023-04-16T19:42:20.717Z,9.45
2023-04-16T19:44:47.035Z,8.98
2023-04-16T19:47:13.355Z,10.00
2023-04-16T19:49:39.666Z,10.30
2023-04-16T19:52:11.358Z,9.35
2023-04-16T19:54:37.702Z,9.55
2023-04-16T19:57:04.438Z,11.43
2023-04-16T19:59:31.922Z,10.65
2023-04-16T20:02:02.048Z,9.15
2023-04-16T20:04:28.634Z,11.20
2023-04-16T20:06:57.585Z,10.55
2023-04-16T20:09:23.938Z,10.18
2023-04-16T20:11:51.399Z,9.02
2023-04-16T20:14:17.717Z,12.45
2023-04-16T20:16:44.078Z,10.52
2023-04-16T20:19:10.743Z,10.75
2023-04-16T20:21:37.426Z,9.55
2023-04-16T20:24:07.449Z,11.57
2023-04-16T20:26:36.830Z,11.70
2023-04-16T20:29:03.136Z,11.43
2023-04-16T20:31:30.673Z,10.60
2023-04-16T20:33:57.021Z,11.40
2023-04-16T20:36:23.426Z,10.40
2023-04-16T20:38:50.714Z,10.98
2023-04-16T20:41:17.902Z,11.95
2023-04-16T20:43:44.184Z,10.65
2023-04-16T20:46:14.668Z,11.45
2023-04-16T20:48:40.978Z,10.63
2023-04-16T20:51:07.665Z,12.35
2023-04-16T20:53:34.013Z,11.30
2023-04-16T20:56:00.398Z,10.82
2023-04-16T20:58:29.313Z,11.65
2023-04-16T21:00:57.363Z,12.55
2023-04-16T21:03:25.352Z,11.25
2023-04-16T21:05:53.164Z,13.15
2023-04-16T21:08:24.627Z,11.75
2023-04-16T21:10:59.895Z,14.00
2023-04-16T21:13:26.250Z,12.13
2023-04-16T21:15:52.844Z,12.32
2023-04-16T21:18:21.971Z,11.52
2023-04-16T21:20:48.273Z,13.23
2023-04-16T21:23:17.003Z,12.60
2023-04-16T21:25:43.455Z,11.85
2023-04-16T21:28:09.814Z,11.98
2023-04-16T21:30:36.686Z,13.90
2023-04-16T21:33:08.404Z,11.63
2023-04-16T21:35:34.713Z,11.70
2023-04-16T21:38:01.064Z,11.75
2023-04-16T21:40:34.850Z,11.88
2023-04-16T21:43:01.137Z,13.80
2023-04-16T21:45:30.672Z,11.68
2023-04-16T21:47:57.039Z,10.93
2023-04-16T21:50:23.455Z,11.13
2023-04-16T21:52:52.642Z,11.50
2023-04-16T21:55:19.229Z,10.48
2023-04-16T21:57:45.556Z,11.95
2023-04-16T22:00:12.310Z,10.88
2023-04-16T22:02:41.776Z,10.77
2023-04-16T22:05:12.402Z,11.77
2023-04-16T22:07:47.291Z,10.40
2023-04-16T22:10:15.054Z,10.93
2023-04-16T22:12:42.650Z,12.43
2023-04-16T22:15:09.236Z,10.55
2023-04-16T22:17:35.648Z,9.02
2023-04-16T22:20:02.587Z,12.52
2023-04-16T22:22:28.887Z,11.88
2023-04-16T22:24:57.635Z,12.38
2023-04-16T22:27:26.136Z,12.60
2023-04-16T22:29:52.445Z,12.32
2023-04-16T22:32:18.958Z,11.77
2023-04-16T22:34:45.362Z,13.05
2023-04-16T22:37:11.666Z,11.55
2023-04-16T22:39:37.951Z,12.25
2023-04-16T22:42:04.329Z,12.18
2023-04-16T22:44:30.687Z,12.02
2023-04-16T22:46:57.079Z,11.90
2023-04-16T22:49:28.231Z,12.45
2023-04-16T22:51:56.399Z,11.93
2023-04-16T22:54:27.916Z,11.65
2023-04-16T22:56:54.195Z,13.45
2023-04-16T22:59:20.473Z,11.60
2023-04-16T23:01:46.929Z,11.77
2023-04-16T23:04:16.323Z,12.48
2023-04-16T23:06:42.931Z,11.32
2023-04-16T23:09:12.955Z,13.65
2023-04-16T23:11:39.503Z,11.70
2023-04-16T23:14:07.274Z,13.60
2023-04-16T23:16:33.876Z,12.30
2023-04-16T23:19:02.716Z,13.30
2023-04-16T23:21:35.845Z,10.65
2023-04-16T23:24:02.204Z,11.32
2023-04-16T23:26:34.272Z,11.27
2023-04-16T23:29:00.610Z,11.48
2023-04-16T23:31:26.921Z,13.27
2023-04-16T23:33:53.234Z,13.38
2023-04-16T23:36:21.882Z,12.38
2023-04-16T23:38:48.176Z,10.02
2023-04-16T23:41:14.893Z,11.82
2023-04-16T23:43:43.736Z,11.50
2023-04-16T23:46:10.115Z,13.45
2023-04-16T23:48:36.460Z,13.80
2023-04-16T23:51:02.910Z,12.30
2023-04-16T23:53:29.213Z,11.57
2023-04-16T23:55:55.597Z,12.00
2023-04-16T23:58:21.918Z,12.98
